Time;durP1;ratioP1;P1;durP2;ratioP2;P2;SDS_P1;SDS_P2;PMS_P1;PMS_P2;Temp;Humidity;BMP_temperature;BMP_pressure;BME280_temperature;BME280_humidity;BME280_pressure;Samples;Min_cycle;Max_cycle;Signal;HPM_P1;HPM_P2
2022/01/25 00:15:18;;;;;;;;;104.25;85.00;;;;;;;;5057540;28;45237;-76
2022/01/25 00:28:26;;;;;;;;;99.67;76.67;;;;;;;;5060181;28;45273;-76
2022/01/25 00:33:23;;;;;;;;;101.25;80.75;;;;;;;;5060171;28;45253;-76
2022/01/25 00:35:48;;;;;;;;;99.25;84.75;;;;;;;;5053379;28;45427;-76
2022/01/25 00:38:13;;;;;;;;;101.75;77.50;;;;;;;;5041895;28;45264;-76
2022/01/25 00:40:38;;;;;;;;;97.50;75.50;;;;;;;;5052874;28;45285;-76
2022/01/25 00:43:04;;;;;;;;;106.75;86.75;;;;;;;;5041219;28;45874;-76
2022/01/25 00:45:29;;;;;;;;;105.75;82.50;;;;;;;;5051893;28;46976;-76
2022/01/25 00:47:54;;;;;;;;;107.50;88.50;;;;;;;;5059852;28;45305;-76
2022/01/25 00:50:22;;;;;;;;;99.25;81.00;;;;;;;;5035074;28;45259;-76
2022/01/25 00:55:12;;;;;;;;;101.00;83.25;;;;;;;;5052759;28;45337;-76
2022/01/25 00:57:38;;;;;;;;;95.00;75.50;;;;;;;;5059812;28;45363;-76
2022/01/25 01:00:05;;;;;;;;;101.00;79.00;;;;;;;;5052739;28;45335;-76
2022/01/25 01:02:31;;;;;;;;;94.75;72.50;;;;;;;;5059574;28;45269;-76
2022/01/25 01:04:56;;;;;;;;;100.50;81.50;;;;;;;;5037219;28;47096;-76
2022/01/25 01:07:21;;;;;;;;;100.50;78.50;;;;;;;;5047773;28;45277;-76
2022/01/25 01:09:49;;;;;;;;;101.75;76.25;;;;;;;;5056396;28;45339;-76
2022/01/25 01:12:28;;;;;;;;;100.00;81.50;;;;;;;;5041469;28;46193;-76
2022/01/25 01:31:02;;;;;;;;;97.67;74.00;;;;;;;;5050104;28;45404;-76
2022/01/25 01:34:36;;;;;;;;;93.33;70.67;;;;;;;;5041269;28;46112;-76
2022/01/25 01:42:29;;;;;;;;;94.33;71.00;;;;;;;;5053668;28;45261;-77
2022/01/25 01:44:24;;;;;;;;;88.33;67.00;;;;;;;;5034667;28;45477;-76
2022/01/25 01:47:06;;;;;;;;;90.00;67.33;;;;;;;;5033649;28;48347;-76
2022/01/25 01:49:38;;;;;;;;;87.00;66.67;;;;;;;;5051927;28;45975;-76
2022/01/25 01:52:04;;;;;;;;;82.00;67.00;;;;;;;;5057158;28;45297;-76
2022/01/25 01:54:29;;;;;;;;;92.67;69.00;;;;;;;;5051079;28;46356;-77
2022/01/25 01:56:55;;;;;;;;;91.33;68.67;;;;;;;;5061325;28;45445;-76
2022/01/25 01:59:20;;;;;;;;;101.00;71.67;;;;;;;;5058472;28;45450;-76
2022/01/25 02:01:46;;;;;;;;;94.33;70.67;;;;;;;;5037645;28;45379;-76
2022/01/25 02:04:12;;;;;;;;;92.67;72.33;;;;;;;;5041462;28;47225;-76
2022/01/25 02:06:38;;;;;;;;;92.33;70.33;;;;;;;;5056616;28;45230;-76
2022/01/25 02:09:07;;;;;;;;;90.33;68.33;;;;;;;;5039880;28;45400;-77
2022/01/25 02:11:32;;;;;;;;;101.00;78.50;;;;;;;;5060697;28;45304;-76
2022/01/25 02:14:03;;;;;;;;;97.75;73.75;;;;;;;;5042003;28;47370;-76
2022/01/25 02:24:41;;;;;;;;;96.50;72.50;;;;;;;;5059197;28;45419;-76
2022/01/25 02:27:06;;;;;;;;;98.33;72.33;;;;;;;;5055359;28;45326;-76
2022/01/25 02:29:32;;;;;;;;;96.50;70.00;;;;;;;;5039737;28;45970;-76
2022/01/25 02:31:57;;;;;;;;;94.33;71.33;;;;;;;;5061381;28;45458;-76
2022/01/25 02:34:23;;;;;;;;;89.67;71.33;;;;;;;;5040909;28;47563;-75
2022/01/25 02:36:56;;;;;;;;;102.00;76.67;;;;;;;;5036757;28;47000;-75
2022/01/25 02:39:21;;;;;;;;;90.00;71.33;;;;;;;;5045080;28;45305;-76
2022/01/25 02:41:46;;;;;;;;;91.33;71.33;;;;;;;;5059606;28;45274;-76
2022/01/25 02:44:17;;;;;;;;;90.67;70.00;;;;;;;;5057721;28;45856;-75
2022/01/25 02:49:08;;;;;;;;;87.67;69.67;;;;;;;;5059452;28;45438;-76
2022/01/25 02:51:38;;;;;;;;;99.33;70.67;;;;;;;;5061085;28;45233;-75
2022/01/25 02:54:04;;;;;;;;;90.33;68.00;;;;;;;;5059502;28;45494;-75
2022/01/25 02:56:29;;;;;;;;;90.00;70.00;;;;;;;;5047128;28;47176;-75
2022/01/25 02:58:58;;;;;;;;;85.67;68.00;;;;;;;;5041411;28;45446;-75
2022/01/25 03:01:23;;;;;;;;;88.33;70.00;;;;;;;;5053675;28;45299;-76
2022/01/25 03:03:50;;;;;;;;;94.00;71.33;;;;;;;;5059466;28;45420;-76
2022/01/25 03:06:16;;;;;;;;;85.00;63.33;;;;;;;;5055483;28;45630;-76
2022/01/25 03:08:41;;;;;;;;;88.33;67.67;;;;;;;;5060618;28;45344;-75
2022/01/25 03:11:07;;;;;;;;;84.33;66.67;;;;;;;;5057012;28;45364;-76
2022/01/25 03:13:43;;;;;;;;;97.00;70.67;;;;;;;;5061370;28;45307;-76
2022/01/25 03:16:18;;;;;;;;;89.67;68.00;;;;;;;;5059787;28;45202;-75
2022/01/25 03:18:46;;;;;;;;;84.00;66.00;;;;;;;;5060096;28;45161;-76
2022/01/25 03:21:54;;;;;;;;;88.00;68.33;;;;;;;;5052423;28;45271;-75
2022/01/25 03:24:02;;;;;;;;;89.67;67.67;;;;;;;;5050412;28;45471;-76
2022/01/25 03:26:27;;;;;;;;;85.67;64.67;;;;;;;;5053736;28;45406;-75
2022/01/25 03:28:53;;;;;;;;;81.33;63.00;;;;;;;;5046819;28;45212;-75
2022/01/25 03:31:18;;;;;;;;;82.67;64.00;;;;;;;;5056731;28;45406;-76
2022/01/25 03:33:44;;;;;;;;;87.00;64.33;;;;;;;;5047276;28;46999;-75
2022/01/25 03:36:09;;;;;;;;;87.33;66.00;;;;;;;;5053656;28;45269;-75
2022/01/25 03:38:35;;;;;;;;;76.67;62.33;;;;;;;;5042633;28;46188;-75
2022/01/25 03:41:02;;;;;;;;;76.67;61.67;;;;;;;;5033931;28;45442;-76
2022/01/25 03:43:27;;;;;;;;;78.67;63.00;;;;;;;;5053902;28;45981;-76
2022/01/25 03:46:05;;;;;;;;;81.67;63.33;;;;;;;;5053995;28;47296;-75
2022/01/25 03:50:55;;;;;;;;;85.00;64.00;;;;;;;;5054185;28;46864;-75
2022/01/25 03:53:20;;;;;;;;;80.67;60.67;;;;;;;;5046299;28;46564;-75
2022/01/25 03:55:47;;;;;;;;;80.33;61.33;;;;;;;;5053437;28;45539;-75
2022/01/25 03:58:13;;;;;;;;;82.33;63.33;;;;;;;;5056699;28;45374;-76
2022/01/25 04:00:38;;;;;;;;;77.67;59.00;;;;;;;;5033725;28;45460;-75
2022/01/25 04:05:46;;;;;;;;;73.67;57.00;;;;;;;;5058425;28;45370;-75
2022/01/25 04:08:13;;;;;;;;;69.00;54.33;;;;;;;;5058533;28;45453;-75
2022/01/25 04:10:39;;;;;;;;;72.00;55.67;;;;;;;;5057010;28;45235;-75
2022/01/25 04:13:04;;;;;;;;;72.33;54.00;;;;;;;;5042478;28;46388;-75
2022/01/25 04:15:30;;;;;;;;;72.00;56.67;;;;;;;;5050942;28;45405;-75
2022/01/25 04:18:03;;;;;;;;;63.33;51.00;;;;;;;;5057736;28;45406;-75
2022/01/25 04:20:33;;;;;;;;;66.33;55.67;;;;;;;;5033414;28;45221;-75
2022/01/25 04:25:42;;;;;;;;;75.67;58.00;;;;;;;;5053532;28;45229;-75
2022/01/25 04:28:08;;;;;;;;;69.00;56.67;;;;;;;;5060130;28;45276;-75
2022/01/25 04:30:33;;;;;;;;;78.67;57.33;;;;;;;;5051410;28;45276;-75
2022/01/25 04:33:04;;;;;;;;;68.33;55.00;;;;;;;;5058796;28;45621;-75
2022/01/25 04:56:45;;;;;;;;;74.67;55.33;;;;;;;;5051631;28;45386;-76
2022/01/25 04:59:20;;;;;;;;;78.00;54.33;;;;;;;;5057198;28;45384;-76
2022/01/25 05:01:47;;;;;;;;;63.67;49.33;;;;;;;;5037384;28;45434;-75
2022/01/25 05:04:19;;;;;;;;;71.00;54.33;;;;;;;;5057030;28;45265;-75
2022/01/25 05:06:47;;;;;;;;;70.00;52.67;;;;;;;;5059027;28;45904;-76
2022/01/25 05:09:13;;;;;;;;;70.33;50.67;;;;;;;;5055311;28;46638;-75
2022/01/25 05:11:45;;;;;;;;;69.33;54.00;;;;;;;;5046282;28;45302;-74
2022/01/25 05:14:16;;;;;;;;;67.00;54.00;;;;;;;;5038981;28;46048;-75
2022/01/25 05:17:18;;;;;;;;;69.67;55.00;;;;;;;;5050265;28;46430;-75
2022/01/25 05:22:04;;;;;;;;;77.33;57.33;;;;;;;;5055761;28;45467;-75
2022/01/25 05:22:30;;;;;;;;;78.67;60.00;;;;;;;;5049197;28;45373;-75
2022/01/25 05:24:55;;;;;;;;;78.00;55.67;;;;;;;;5045092;28;45504;-75
2022/01/25 05:27:22;;;;;;;;;79.33;61.00;;;;;;;;5058894;28;45486;-76
2022/01/25 05:29:48;;;;;;;;;78.00;59.00;;;;;;;;5029388;28;45561;-76
2022/01/25 05:32:13;;;;;;;;;75.67;59.67;;;;;;;;5038659;28;45367;-76
2022/01/25 05:34:38;;;;;;;;;83.00;62.33;;;;;;;;5052907;28;45527;-75
2022/01/25 05:37:06;;;;;;;;;78.00;57.00;;;;;;;;5058715;28;45652;-75
2022/01/25 05:39:33;;;;;;;;;77.33;60.00;;;;;;;;5035460;28;45323;-75
2022/01/25 05:42:15;;;;;;;;;78.00;58.33;;;;;;;;5055768;28;45482;-77
2022/01/25 05:44:53;;;;;;;;;85.00;61.00;;;;;;;;5052348;28;45267;-76
2022/01/25 05:47:27;;;;;;;;;79.33;59.00;;;;;;;;5058454;28;45525;-75
2022/01/25 05:49:52;;;;;;;;;78.67;57.67;;;;;;;;5052218;28;45356;-74
2022/01/25 05:52:17;;;;;;;;;76.00;58.00;;;;;;;;5059260;28;45250;-73
2022/01/25 05:54:43;;;;;;;;;75.67;58.33;;;;;;;;5055592;28;45304;-74
2022/01/25 05:57:08;;;;;;;;;73.00;56.33;;;;;;;;5058593;28;45980;-73
2022/01/25 05:59:33;;;;;;;;;71.00;56.00;;;;;;;;5053350;28;45298;-74
2022/01/25 06:01:59;;;;;;;;;78.00;55.33;;;;;;;;5051236;28;44754;-74
2022/01/25 06:04:24;;;;;;;;;73.67;56.67;;;;;;;;5043850;28;45549;-74
2022/01/25 06:06:50;;;;;;;;;75.00;57.67;;;;;;;;5058250;28;45470;-74
2022/01/25 06:09:16;;;;;;;;;73.33;57.00;;;;;;;;5055463;28;45329;-74
2022/01/25 06:11:41;;;;;;;;;77.67;60.33;;;;;;;;5039289;28;45624;-74
2022/01/25 06:14:06;;;;;;;;;75.67;57.33;;;;;;;;5056270;28;45576;-73
2022/01/25 06:16:32;;;;;;;;;80.33;58.33;;;;;;;;5050000;28;46486;-74
2022/01/25 06:18:58;;;;;;;;;84.00;61.33;;;;;;;;5044814;28;45365;-73
2022/01/25 06:21:23;;;;;;;;;76.33;56.33;;;;;;;;5051499;28;45230;-74
2022/01/25 06:23:49;;;;;;;;;78.00;60.00;;;;;;;;5057253;28;45447;-75
2022/01/25 06:26:14;;;;;;;;;67.00;54.67;;;;;;;;5053845;28;46422;-74
2022/01/25 06:28:39;;;;;;;;;69.33;59.00;;;;;;;;5057794;28;45379;-74
2022/01/25 06:31:05;;;;;;;;;72.33;54.33;;;;;;;;5051030;28;45332;-74
2022/01/25 06:33:30;;;;;;;;;69.33;56.00;;;;;;;;5058484;28;45313;-73
2022/01/25 06:35:56;;;;;;;;;79.33;58.67;;;;;;;;5051406;28;46631;-74
2022/01/25 06:38:22;;;;;;;;;72.33;56.33;;;;;;;;5058476;28;45452;-74
2022/01/25 06:40:47;;;;;;;;;69.33;54.33;;;;;;;;5035869;28;45284;-74
2022/01/25 06:43:12;;;;;;;;;79.33;58.33;;;;;;;;5061648;28;45368;-73
2022/01/25 06:45:40;;;;;;;;;79.67;57.33;;;;;;;;5055043;28;45673;-75
2022/01/25 06:48:06;;;;;;;;;4.67;0.00;;;;;;;;5060488;28;45303;-72
2022/01/25 06:50:32;;;;;;;;;73.67;55.00;;;;;;;;5055262;28;45386;-72
2022/01/25 06:52:57;;;;;;;;;77.00;55.00;;;;;;;;5061387;28;45282;-71
2022/01/25 06:55:23;;;;;;;;;69.33;55.33;;;;;;;;5058922;28;45273;-72
2022/01/25 06:57:48;;;;;;;;;75.67;57.00;;;;;;;;5046490;28;45224;-74
2022/01/25 07:00:15;;;;;;;;;66.33;51.67;;;;;;;;5057124;28;47599;-72
2022/01/25 07:02:41;;;;;;;;;73.00;57.33;;;;;;;;5058933;28;45305;-72
2022/01/25 07:05:07;;;;;;;;;76.33;55.00;;;;;;;;5058163;28;45421;-72
2022/01/25 07:07:33;;;;;;;;;83.33;56.00;;;;;;;;5060057;28;45292;-72
2022/01/25 07:09:58;;;;;;;;;81.67;55.67;;;;;;;;5040881;28;45398;-73
2022/01/25 07:12:23;;;;;;;;;71.67;55.67;;;;;;;;5061032;28;45414;-72
2022/01/25 07:14:48;;;;;;;;;65.67;55.00;;;;;;;;5057874;28;46189;-72
2022/01/25 07:17:13;;;;;;;;;65.67;54.33;;;;;;;;5053792;28;45214;-72
2022/01/25 07:19:39;;;;;;;;;65.33;51.00;;;;;;;;5059188;28;45382;-72
2022/01/25 07:22:04;;;;;;;;;70.00;53.00;;;;;;;;5053790;28;45420;-72
2022/01/25 07:24:29;;;;;;;;;73.33;53.33;;;;;;;;5056559;28;46583;-72
2022/01/25 07:26:55;;;;;;;;;71.33;53.00;;;;;;;;5058944;28;45264;-72
2022/01/25 07:29:20;;;;;;;;;72.33;55.00;;;;;;;;5057632;28;45494;-72
2022/01/25 07:31:45;;;;;;;;;68.67;53.67;;;;;;;;5055265;28;45298;-72
2022/01/25 07:34:10;;;;;;;;;80.00;59.00;;;;;;;;5039888;28;47086;-73
2022/01/25 07:36:37;;;;;;;;;74.00;54.67;;;;;;;;5041655;28;45265;-73
2022/01/25 07:39:03;;;;;;;;;72.33;57.33;;;;;;;;5058133;28;45566;-73
2022/01/25 07:41:29;;;;;;;;;72.00;55.33;;;;;;;;5059953;28;45475;-74
2022/01/25 07:43:54;;;;;;;;;81.00;57.00;;;;;;;;5039973;28;47156;-73
2022/01/25 07:46:19;;;;;;;;;70.00;53.33;;;;;;;;5059888;28;45343;-73
2022/01/25 07:48:44;;;;;;;;;72.67;56.67;;;;;;;;5059240;28;45522;-73
2022/01/25 07:51:10;;;;;;;;;75.67;56.00;;;;;;;;5057129;28;45434;-73
2022/01/25 07:53:37;;;;;;;;;74.67;56.67;;;;;;;;5060158;28;45532;-73
2022/01/25 07:56:02;;;;;;;;;68.33;53.33;;;;;;;;5057489;28;45339;-72
2022/01/25 07:58:27;;;;;;;;;72.33;52.67;;;;;;;;5060471;28;45458;-72
2022/01/25 08:00:52;;;;;;;;;75.33;57.00;;;;;;;;5040440;28;45606;-73
2022/01/25 08:03:18;;;;;;;;;73.67;54.00;;;;;;;;5040402;28;47621;-75
2022/01/25 08:05:45;;;;;;;;;75.67;59.00;;;;;;;;5053841;28;45225;-74
2022/01/25 08:08:11;;;;;;;;;74.00;56.33;;;;;;;;5042131;28;45428;-73
2022/01/25 08:10:36;;;;;;;;;79.33;59.67;;;;;;;;5057644;28;45641;-73
2022/01/25 08:13:01;;;;;;;;;76.33;57.00;;;;;;;;5059554;28;45452;-74
2022/01/25 08:15:26;;;;;;;;;74.33;55.67;;;;;;;;5052288;28;45227;-74
2022/01/25 08:17:52;;;;;;;;;79.33;58.33;;;;;;;;5040026;28;45284;-73
2022/01/25 08:20:17;;;;;;;;;78.33;56.67;;;;;;;;5035087;28;46372;-73
2022/01/25 08:22:44;;;;;;;;;75.00;57.33;;;;;;;;5039813;28;48060;-73
2022/01/25 08:25:10;;;;;;;;;73.67;53.67;;;;;;;;5032806;28;45454;-74
2022/01/25 08:27:35;;;;;;;;;74.33;55.33;;;;;;;;5057905;28;45626;-72
2022/01/25 08:30:00;;;;;;;;;77.00;55.33;;;;;;;;5053995;28;45451;-73
2022/01/25 08:32:26;;;;;;;;;75.67;56.67;;;;;;;;5039200;28;47150;-73
2022/01/25 08:34:51;;;;;;;;;78.33;59.00;;;;;;;;5053431;28;45324;-73
2022/01/25 08:37:16;;;;;;;;;74.33;54.00;;;;;;;;5045258;28;45499;-73
2022/01/25 08:39:42;;;;;;;;;69.67;56.00;;;;;;;;5053775;28;45257;-73
2022/01/25 08:42:08;;;;;;;;;67.33;56.67;;;;;;;;5038705;28;46977;-73
2022/01/25 08:44:34;;;;;;;;;72.67;51.67;;;;;;;;5054862;28;45328;-73
2022/01/25 08:46:59;;;;;;;;;77.33;56.33;;;;;;;;5039202;28;45248;-73
2022/01/25 08:49:27;;;;;;;;;83.00;58.00;;;;;;;;5053141;28;45404;-75
2022/01/25 08:51:52;;;;;;;;;76.00;60.00;;;;;;;;5061569;28;45318;-74
2022/01/25 08:54:18;;;;;;;;;69.67;56.33;;;;;;;;5070553;28;45193;-75
2022/01/25 08:56:43;;;;;;;;;71.67;55.00;;;;;;;;5051755;28;45197;-74
2022/01/25 08:59:09;;;;;;;;;77.00;57.67;;;;;;;;5039206;28;46002;-74
2022/01/25 09:01:34;;;;;;;;;72.33;56.33;;;;;;;;5055156;28;46842;-74
2022/01/25 09:04:01;;;;;;;;;71.67;56.33;;;;;;;;5057335;28;45269;-74
2022/01/25 09:06:26;;;;;;;;;73.33;53.67;;;;;;;;5041361;28;45406;-75
2022/01/25 09:08:51;;;;;;;;;77.67;59.33;;;;;;;;5058128;28;45309;-74
2022/01/25 09:11:17;;;;;;;;;79.33;59.33;;;;;;;;5037820;28;47647;-75
2022/01/25 09:13:42;;;;;;;;;80.33;59.33;;;;;;;;5059244;28;45325;-74
2022/01/25 09:16:08;;;;;;;;;75.00;58.33;;;;;;;;5049678;28;45228;-74
2022/01/25 09:18:33;;;;;;;;;76.67;60.67;;;;;;;;5059502;28;45324;-74
2022/01/25 09:20:58;;;;;;;;;74.33;56.00;;;;;;;;5049928;28;46526;-74
2022/01/25 09:23:25;;;;;;;;;73.33;55.33;;;;;;;;5059604;28;45321;-75
2022/01/25 09:25:50;;;;;;;;;78.67;57.00;;;;;;;;5053618;28;45229;-74
2022/01/25 09:28:16;;;;;;;;;70.67;56.00;;;;;;;;5059434;28;45135;-74
2022/01/25 09:30:41;;;;;;;;;71.67;54.33;;;;;;;;5033927;28;47399;-75
2022/01/25 09:33:06;;;;;;;;;70.00;53.33;;;;;;;;5059283;28;45276;-74
2022/01/25 09:35:32;;;;;;;;;62.33;52.33;;;;;;;;5052805;28;45502;-74
2022/01/25 09:37:57;;;;;;;;;74.33;55.33;;;;;;;;5059150;28;44741;-74
2022/01/25 09:40:23;;;;;;;;;66.33;46.00;;;;;;;;5052091;28;46243;-74
2022/01/25 09:42:54;;;;;;;;;68.67;53.00;;;;;;;;5058789;28;45236;-74
2022/01/25 09:45:19;;;;;;;;;69.33;56.67;;;;;;;;5052593;28;45299;-74
2022/01/25 09:47:45;;;;;;;;;68.33;51.00;;;;;;;;5059053;28;45269;-74
2022/01/25 09:50:11;;;;;;;;;76.00;58.33;;;;;;;;5052212;28;45439;-74
2022/01/25 09:52:37;;;;;;;;;73.00;59.00;;;;;;;;5058875;28;45234;-74
2022/01/25 09:55:08;;;;;;;;;74.00;57.67;;;;;;;;5051291;28;45425;-74
2022/01/25 09:57:34;;;;;;;;;68.00;54.00;;;;;;;;5045751;28;47432;-74
2022/01/25 09:59:59;;;;;;;;;75.00;57.33;;;;;;;;5053797;28;45372;-74
2022/01/25 10:02:48;;;;;;;;;69.00;55.00;;;;;;;;5056246;28;45341;-74
2022/01/25 10:05:16;;;;;;;;;80.33;57.00;;;;;;;;5055692;28;45249;-74
2022/01/25 10:07:41;;;;;;;;;78.67;61.00;;;;;;;;5045265;28;46939;-74
2022/01/25 10:10:07;;;;;;;;;75.00;55.67;;;;;;;;5056176;28;46791;-74
2022/01/25 10:12:32;;;;;;;;;69.67;54.00;;;;;;;;5058401;28;45340;-74
2022/01/25 10:15:00;;;;;;;;;70.67;55.33;;;;;;;;5056386;28;47466;-74
2022/01/25 10:17:33;;;;;;;;;71.00;50.33;;;;;;;;5052263;28;47127;-74
2022/01/25 10:19:58;;;;;;;;;71.67;56.33;;;;;;;;5058420;28;45451;-74
2022/01/25 10:22:23;;;;;;;;;72.33;55.67;;;;;;;;5056749;28;45427;-74
2022/01/25 10:24:49;;;;;;;;;60.67;45.67;;;;;;;;5056000;28;45431;-74
2022/01/25 10:27:14;;;;;;;;;75.00;54.67;;;;;;;;5062354;28;45622;-74
2022/01/25 10:29:41;;;;;;;;;73.00;51.33;;;;;;;;5037804;28;46898;-74
2022/01/25 10:32:14;;;;;;;;;72.33;53.00;;;;;;;;5061329;28;45257;-74
2022/01/25 10:34:44;;;;;;;;;69.33;54.00;;;;;;;;5056548;28;45448;-74
2022/01/25 10:37:11;;;;;;;;;71.33;52.33;;;;;;;;5061507;28;45403;-74
2022/01/25 10:39:39;;;;;;;;;75.33;55.33;;;;;;;;5056529;28;45489;-74
2022/01/25 10:42:08;;;;;;;;;74.33;54.00;;;;;;;;5039339;28;46283;-74
2022/01/25 10:44:46;;;;;;;;;71.67;54.33;;;;;;;;5057011;28;45245;-74
2022/01/25 10:47:11;;;;;;;;;74.33;56.67;;;;;;;;5059052;28;46321;-74
2022/01/25 10:49:46;;;;;;;;;73.00;53.33;;;;;;;;5056367;28;45379;-74
2022/01/25 10:52:12;;;;;;;;;79.00;56.00;;;;;;;;5061594;28;45348;-74
2022/01/25 10:54:38;;;;;;;;;72.00;54.33;;;;;;;;5056301;28;45329;-74
2022/01/25 10:57:04;;;;;;;;;57.33;45.00;;;;;;;;5039183;28;46067;-74
2022/01/25 10:59:32;;;;;;;;;83.67;55.00;;;;;;;;5045236;28;47769;-74
2022/01/25 11:01:58;;;;;;;;;72.67;54.67;;;;;;;;5057967;28;45279;-74
2022/01/25 11:04:25;;;;;;;;;72.00;54.67;;;;;;;;5058309;28;45263;-74
2022/01/25 11:06:58;;;;;;;;;71.00;56.00;;;;;;;;5058221;28;45261;-73
2022/01/25 11:09:25;;;;;;;;;75.00;56.33;;;;;;;;5058120;28;46114;-72
2022/01/25 11:11:53;;;;;;;;;78.33;59.33;;;;;;;;5061235;28;45395;-74
2022/01/25 11:17:02;;;;;;;;;68.33;55.33;;;;;;;;5043198;28;45332;-75
2022/01/25 11:19:28;;;;;;;;;76.67;56.67;;;;;;;;5035285;28;47343;-75
2022/01/25 11:21:54;;;;;;;;;65.00;52.00;;;;;;;;5040631;28;45333;-74
2022/01/25 11:24:20;;;;;;;;;78.67;58.00;;;;;;;;5057767;28;45489;-74
2022/01/25 11:26:46;;;;;;;;;75.67;57.67;;;;;;;;5055170;28;45394;-75
2022/01/25 11:29:11;;;;;;;;;81.33;58.00;;;;;;;;5042373;28;47220;-73
2022/01/25 11:31:38;;;;;;;;;75.33;59.00;;;;;;;;5034783;28;45695;-74
2022/01/25 11:34:05;;;;;;;;;73.00;57.33;;;;;;;;5056620;28;45361;-74
2022/01/25 11:36:42;;;;;;;;;75.00;56.00;;;;;;;;5056498;28;45436;-74
2022/01/25 11:39:09;;;;;;;;;72.67;54.67;;;;;;;;5059569;28;45498;-74
2022/01/25 11:41:34;;;;;;;;;81.33;55.67;;;;;;;;5048606;28;45436;-74
2022/01/25 11:44:05;;;;;;;;;70.00;54.33;;;;;;;;5058896;28;45296;-74
2022/01/25 11:46:31;;;;;;;;;74.33;53.33;;;;;;;;5058415;28;45257;-73
2022/01/25 11:49:00;;;;;;;;;75.67;54.33;;;;;;;;5039131;28;46924;-73
2022/01/25 11:51:25;;;;;;;;;68.33;52.00;;;;;;;;5054202;28;45398;-73
2022/01/25 11:53:50;;;;;;;;;62.67;44.00;;;;;;;;5058704;28;45283;-73
2022/01/25 11:56:16;;;;;;;;;69.67;54.00;;;;;;;;5052978;28;45446;-72
2022/01/25 11:58:42;;;;;;;;;70.67;54.00;;;;;;;;5029162;28;46929;-72
2022/01/25 12:01:21;;;;;;;;;69.33;50.67;;;;;;;;5037138;28;45700;-72
2022/01/25 12:03:48;;;;;;;;;69.67;53.33;;;;;;;;5048912;28;45318;-73
2022/01/25 12:06:21;;;;;;;;;73.00;54.67;;;;;;;;5056604;28;45415;-72
2022/01/25 12:11:43;;;;;;;;;73.67;55.33;;;;;;;;5050709;28;45345;-73
2022/01/25 12:14:21;;;;;;;;;69.67;53.33;;;;;;;;5057980;28;45404;-72
2022/01/25 12:16:47;;;;;;;;;64.67;49.33;;;;;;;;5032676;28;46466;-72
2022/01/25 12:19:14;;;;;;;;;62.67;50.67;;;;;;;;5054087;28;45413;-72
2022/01/25 12:21:49;;;;;;;;;77.33;55.33;;;;;;;;5055246;28;45333;-72
2022/01/25 12:24:14;;;;;;;;;64.67;50.67;;;;;;;;5042439;28;45391;-72
2022/01/25 12:29:42;;;;;;;;;72.67;54.33;;;;;;;;5039678;28;45374;-71
2022/01/25 12:32:17;;;;;;;;;71.33;54.33;;;;;;;;5035082;28;45411;-71
2022/01/25 12:35:00;;;;;;;;;63.67;49.00;;;;;;;;5053880;28;45294;-71
2022/01/25 12:37:53;;;;;;;;;65.33;50.00;;;;;;;;5057662;28;45218;-72
2022/01/25 12:40:31;;;;;;;;;70.33;52.00;;;;;;;;5052408;28;45637;-72
2022/01/25 12:43:03;;;;;;;;;65.00;51.33;;;;;;;;5058673;28;45489;-72
2022/01/25 12:45:30;;;;;;;;;72.33;54.00;;;;;;;;5052220;28;45483;-72
2022/01/25 12:47:58;;;;;;;;;66.67;51.00;;;;;;;;5059237;28;45554;-72
2022/01/25 12:50:23;;;;;;;;;70.67;53.67;;;;;;;;5053208;28;45520;-72
2022/01/25 12:52:49;;;;;;;;;61.33;46.67;;;;;;;;5056792;28;45247;-72
2022/01/25 12:55:15;;;;;;;;;62.67;51.00;;;;;;;;5053870;28;45708;-72
2022/01/25 12:57:50;;;;;;;;;68.33;52.00;;;;;;;;5055930;28;45353;-72
2022/01/25 13:00:16;;;;;;;;;73.00;51.00;;;;;;;;5054783;28;45409;-72
2022/01/25 13:02:41;;;;;;;;;69.33;53.67;;;;;;;;5057366;28;45336;-72
2022/01/25 13:05:17;;;;;;;;;71.00;52.33;;;;;;;;5056908;28;45384;-72
2022/01/25 13:07:42;;;;;;;;;69.00;51.33;;;;;;;;5046222;28;46280;-71
2022/01/25 13:10:11;;;;;;;;;69.33;52.67;;;;;;;;5052110;28;47009;-72
2022/01/25 13:12:47;;;;;;;;;61.33;48.00;;;;;;;;5053807;28;45302;-72
2022/01/25 13:15:38;;;;;;;;;68.33;53.00;;;;;;;;5053957;28;45447;-72
2022/01/25 13:18:10;;;;;;;;;69.67;51.67;;;;;;;;5040030;28;46475;-72
2022/01/25 13:20:35;;;;;;;;;72.67;51.00;;;;;;;;5047842;28;48382;-72
2022/01/25 13:23:00;;;;;;;;;70.67;51.67;;;;;;;;5058722;28;45320;-71
2022/01/25 13:27:54;;;;;;;;;69.67;51.67;;;;;;;;5058568;28;45323;-71
2022/01/25 13:30:41;;;;;;;;;63.33;48.33;;;;;;;;5048182;28;45548;-71
2022/01/25 13:33:07;;;;;;;;;67.67;53.67;;;;;;;;5048229;28;45226;-71
2022/01/25 13:35:35;;;;;;;;;66.33;54.33;;;;;;;;5052233;28;45236;-71
2022/01/25 13:38:06;;;;;;;;;59.00;47.67;;;;;;;;5058802;28;45447;-71
2022/01/25 13:40:44;;;;;;;;;67.67;49.33;;;;;;;;5051660;28;46400;-71
2022/01/25 13:43:31;;;;;;;;;74.00;51.33;;;;;;;;5057312;28;45260;-71
2022/01/25 13:45:58;;;;;;;;;63.00;48.67;;;;;;;;5052715;28;45723;-72
2022/01/25 13:48:26;;;;;;;;;66.67;50.67;;;;;;;;5059912;28;45513;-72
2022/01/25 13:50:56;;;;;;;;;72.67;53.33;;;;;;;;5050891;28;47208;-71
2022/01/25 13:53:21;;;;;;;;;68.67;51.67;;;;;;;;5043167;28;45420;-72
2022/01/25 13:55:48;;;;;;;;;77.00;52.00;;;;;;;;5060973;28;45732;-71
2022/01/25 13:58:19;;;;;;;;;64.00;51.67;;;;;;;;5047119;28;47141;-72
2022/01/25 14:00:44;;;;;;;;;66.67;51.33;;;;;;;;5042939;28;47783;-71
2022/01/25 14:03:10;;;;;;;;;70.67;54.67;;;;;;;;5062268;28;45371;-71
2022/01/25 14:05:36;;;;;;;;;71.67;52.67;;;;;;;;5062488;28;45353;-71
2022/01/25 14:08:02;;;;;;;;;64.33;47.67;;;;;;;;5064186;28;45517;-71
2022/01/25 14:10:28;;;;;;;;;66.67;50.67;;;;;;;;5055890;28;48367;-71
2022/01/25 14:23:51;;;;;;;;;75.33;51.00;;;;;;;;5054720;28;45906;-72
2022/01/25 14:26:18;;;;;;;;;62.00;49.33;;;;;;;;5059231;28;45301;-72
2022/01/25 14:28:51;;;;;;;;;66.33;49.00;;;;;;;;5064695;28;45599;-73
2022/01/25 14:31:24;;;;;;;;;66.33;50.33;;;;;;;;5057393;28;48088;-73
2022/01/25 14:33:51;;;;;;;;;63.33;46.00;;;;;;;;5046270;28;45204;-73
2022/01/25 14:36:17;;;;;;;;;50.00;41.33;;;;;;;;5059376;28;45427;-73
2022/01/25 14:38:43;;;;;;;;;64.33;47.67;;;;;;;;5064360;28;45327;-73
2022/01/25 14:41:11;;;;;;;;;62.67;47.33;;;;;;;;5039476;28;48027;-73
2022/01/25 14:43:50;;;;;;;;;72.00;49.67;;;;;;;;5064790;28;45325;-73
2022/01/25 14:46:26;;;;;;;;;67.33;51.00;;;;;;;;5059038;28;45343;-73
2022/01/25 14:49:09;;;;;;;;;61.67;48.33;;;;;;;;5063667;28;45290;-73
2022/01/25 14:51:36;;;;;;;;;52.50;45.25;;;;;;;;5065389;28;46715;-72
2022/01/25 14:54:02;;;;;;;;;84.33;61.00;;;;;;;;5062109;28;45269;-72
2022/01/25 14:56:32;;;;;;;;;63.00;48.00;;;;;;;;5059287;28;45205;-73
2022/01/25 15:01:30;;;;;;;;;70.67;51.33;;;;;;;;5057263;28;45233;-72
2022/01/25 15:03:57;;;;;;;;;104.33;83.33;;;;;;;;5059186;28;45258;-73
2022/01/25 15:06:23;;;;;;;;;61.67;46.67;;;;;;;;5059523;28;45406;-72
2022/01/25 15:08:49;;;;;;;;;59.50;46.25;;;;;;;;5042127;28;46236;-72
2022/01/25 15:11:15;;;;;;;;;47.33;44.00;;;;;;;;5050937;28;45229;-72
2022/01/25 15:13:40;;;;;;;;;62.75;43.75;;;;;;;;5061511;28;45559;-72
2022/01/25 15:16:05;;;;;;;;;60.00;47.33;;;;;;;;5051335;28;45542;-73
2022/01/25 15:18:32;;;;;;;;;64.00;48.67;;;;;;;;5053620;28;45857;-73
2022/01/25 15:20:59;;;;;;;;;66.00;48.33;;;;;;;;5054637;28;46393;-73
2022/01/25 15:23:25;;;;;;;;;77.00;54.00;;;;;;;;5053312;28;45501;-73
2022/01/25 15:25:56;;;;;;;;;71.67;51.67;;;;;;;;5052614;28;45370;-73
2022/01/25 15:28:42;;;;;;;;;65.67;47.33;;;;;;;;5049611;28;46371;-73
2022/01/25 15:31:14;;;;;;;;;64.00;50.33;;;;;;;;5052729;28;47573;-73
2022/01/25 15:33:40;;;;;;;;;69.33;54.33;;;;;;;;5049221;28;45265;-72
2022/01/25 15:36:06;;;;;;;;;71.33;54.00;;;;;;;;5054139;28;45250;-72
2022/01/25 15:38:32;;;;;;;;;52.00;46.00;;;;;;;;5048614;28;47274;-72
2022/01/25 15:40:59;;;;;;;;;66.33;47.67;;;;;;;;5053567;28;45449;-73
2022/01/25 15:43:26;;;;;;;;;61.67;48.00;;;;;;;;5042626;28;45255;-73
2022/01/25 15:46:19;;;;;;;;;67.67;44.33;;;;;;;;5054122;28;45356;-73
2022/01/25 15:48:41;;;;;;;;;65.00;47.00;;;;;;;;5055186;28;45328;-73
2022/01/25 15:51:06;;;;;;;;;74.00;55.67;;;;;;;;5052153;28;45434;-73
2022/01/25 15:53:31;;;;;;;;;66.00;49.67;;;;;;;;5039256;28;46027;-73
2022/01/25 15:55:57;;;;;;;;;62.67;48.00;;;;;;;;5055570;28;45321;-72
2022/01/25 15:58:22;;;;;;;;;63.33;49.67;;;;;;;;5060290;28;45352;-73
2022/01/25 16:00:48;;;;;;;;;66.33;51.67;;;;;;;;5034416;28;47174;-73
2022/01/25 16:03:18;;;;;;;;;71.00;53.00;;;;;;;;5056888;28;45336;-73
2022/01/25 16:05:43;;;;;;;;;68.33;49.00;;;;;;;;5035606;28;45430;-73
2022/01/25 16:08:09;;;;;;;;;65.00;47.33;;;;;;;;5042045;28;45862;-73
2022/01/25 16:10:35;;;;;;;;;57.00;44.00;;;;;;;;5057360;28;46223;-73
2022/01/25 16:13:00;;;;;;;;;55.33;43.67;;;;;;;;5040473;28;45314;-74
2022/01/25 16:15:25;;;;;;;;;62.67;50.00;;;;;;;;5053561;28;45485;-73